Willkommen auf der Webseite des Flugplatzes Uetersen/Heist PDF Drucken E-Mail

Liebe Piloten,

G20 und Asphaltierungsarbeiten sind Vergangenheit, als nächstes Highlight steht am Wochenende 29./30.07.2017 das alljährlich stattfindende Wings and Wheels Event vor der Tür mit reichlich Abwechslung am Boden und in der Luft. Weitere Infos unter http://www.wingsnwheels.de/

 

Sobald die Zeitfenster und Verfahren für an- und abfliegende Piloten an dem WnW-Wochenende genauer festgelegt sind, erhalten Sie hier eine aktuelle Information.

 

Ihr Flugplatzteam

 

Liebe Fliegerfreunde, liebe Gäste und Kunden des Flugplatzes Uetersen,

Herr Szaguhn steht mit seinem Tower-Restaurant täglich außer Montags für Sie bereit.

 

 

 

 

Zufallsbild

Aktuelle Termine

Mo Di Mi Do Fr Sa So
28 29 30 31 1 2 3
4 5 6 7 8 9 10
11 12 13 14 15 16 17
18 19 20 21 22 23 24
25 26 27 28 29 30 1

Pilotenwetter

[source: ADDS]
METAR
EDDH 251320Z 07008KT 010V100 9999 FEW025 FEW030CB SCT110 19/14 Q1022 NOSIG =
TAF
TAF EDDH 251100Z 2512/2618 09007KT 9999 SCT020 PROB30 TEMPO 2513/2517 4500 SHRA BKN014CB BECMG 2521/2523 BKN007 PROB30 TEMPO 2603/2607 4500 BR BECMG 2607/2609 BKN010 BECMG 2609/2611 SCT020 PROB30 TEMPO 2612/2617 4500 SHRA BKN014CB =